createdAt,value
2023-05-14T04:00:49.369Z,20.30
2023-05-14T04:03:21.093Z,20.65
2023-05-14T04:05:52.864Z,21.63
2023-05-14T04:08:24.527Z,19.05
2023-05-14T04:10:56.230Z,18.67
2023-05-14T04:13:27.889Z,16.98
2023-05-14T04:16:01.047Z,21.95
2023-05-14T04:18:32.795Z,18.60
2023-05-14T04:21:04.889Z,20.42
2023-05-14T04:23:36.557Z,20.77
2023-05-14T04:26:08.215Z,18.83
2023-05-14T04:28:39.857Z,20.73
2023-05-14T04:31:12.869Z,19.88
2023-05-14T04:33:44.597Z,19.27
2023-05-14T04:36:16.261Z,19.73
2023-05-14T04:38:47.941Z,20.23
2023-05-14T04:41:19.593Z,18.95
2023-05-14T04:43:51.253Z,19.17
2023-05-14T04:46:24.348Z,18.67
2023-05-14T04:48:56.048Z,15.38
2023-05-14T04:51:27.732Z,14.40
2023-05-14T04:53:59.393Z,13.88
2023-05-14T04:56:31.065Z,13.52
2023-05-14T04:59:02.720Z,16.85
2023-05-14T05:01:35.765Z,11.95
2023-05-14T05:04:07.496Z,13.75
2023-05-14T05:06:39.180Z,13.65
2023-05-14T05:09:10.821Z,9.23
2023-05-14T05:11:42.479Z,8.52
2023-05-14T05:14:14.135Z,7.07
2023-05-14T05:16:47.125Z,8.77
2023-05-14T05:19:20.923Z,7.13
2023-05-14T05:21:56.159Z,7.95
2023-05-14T05:24:27.831Z,7.30
2023-05-14T05:26:59.459Z,6.68
2023-05-14T05:29:31.366Z,7.32
2023-05-14T05:32:05.293Z,6.15
2023-05-14T05:34:36.955Z,9.75
2023-05-14T05:37:08.590Z,7.80
2023-05-14T05:39:40.260Z,6.13
2023-05-14T05:42:11.908Z,4.80
2023-05-14T05:44:43.648Z,8.93
2023-05-14T05:47:16.661Z,6.65
2023-05-14T05:49:48.340Z,5.35
2023-05-14T05:52:20.006Z,10.68
2023-05-14T05:54:51.666Z,5.63
2023-05-14T05:57:25.684Z,7.72
2023-05-14T05:59:57.992Z,6.63
2023-05-14T06:02:31.091Z,6.30
2023-05-14T06:05:02.881Z,6.32
2023-05-14T06:07:34.623Z,7.35
2023-05-14T06:10:07.493Z,7.68
2023-05-14T06:12:39.186Z,8.55
2023-05-14T06:15:11.458Z,8.70
2023-05-14T06:17:44.546Z,7.30
2023-05-14T06:20:16.360Z,9.13
2023-05-14T06:22:48.024Z,10.45
2023-05-14T06:25:19.842Z,10.50
2023-05-14T06:27:51.496Z,8.57
2023-05-14T06:30:23.534Z,9.80
2023-05-14T06:32:56.714Z,8.68
2023-05-14T06:35:29.849Z,7.53
2023-05-14T06:38:01.516Z,9.30
2023-05-14T06:40:33.594Z,10.45
2023-05-14T06:43:05.283Z,7.82
2023-05-14T06:45:36.963Z,8.52
2023-05-14T06:48:10.019Z,9.77
2023-05-14T06:50:41.796Z,8.23
2023-05-14T06:53:13.586Z,8.70
2023-05-14T07:13:28.652Z,8.40
2023-05-14T07:16:00.623Z,9.95
2023-05-14T07:18:34.015Z,6.47
2023-05-14T07:21:06.070Z,7.10
2023-05-14T07:23:37.729Z,7.07
2023-05-14T07:26:09.406Z,6.20
2023-05-14T07:28:41.415Z,7.60
2023-05-14T07:31:13.106Z,5.45
2023-05-14T07:33:46.140Z,6.63
2023-05-14T07:36:18.184Z,5.90
2023-05-14T07:38:49.868Z,6.22
2023-05-14T07:41:21.545Z,5.22
2023-05-14T07:43:53.191Z,4.63
2023-05-14T07:46:25.233Z,8.95
2023-05-14T07:48:58.247Z,8.43
2023-05-14T07:51:29.908Z,5.25
2023-05-14T07:54:01.558Z,8.95
2023-05-14T07:56:33.223Z,4.88
2023-05-14T07:59:04.891Z,4.25
2023-05-14T08:01:37.811Z,4.70
2023-05-14T08:04:12.313Z,6.35
2023-05-14T08:06:44.008Z,6.47
2023-05-14T08:09:15.663Z,7.10
2023-05-14T08:11:47.319Z,4.72
2023-05-14T08:14:19.028Z,7.43
2023-05-14T08:16:50.804Z,9.05
2023-05-14T08:19:24.185Z,6.55
2023-05-14T08:21:55.843Z,4.80
2023-05-14T08:24:27.482Z,7.78
2023-05-14T08:26:59.162Z,7.07
2023-05-14T08:29:30.838Z,5.60
2023-05-14T08:32:11.645Z,6.35
2023-05-14T08:34:52.778Z,5.68
2023-05-14T08:37:24.845Z,4.78
2023-05-14T08:39:56.481Z,6.97
2023-05-14T08:42:28.445Z,6.43
2023-05-14T08:45:01.156Z,7.78
2023-05-14T08:47:32.858Z,5.25
2023-05-14T08:50:07.026Z,4.57
2023-05-14T08:52:38.674Z,5.82
2023-05-14T08:55:10.329Z,7.65
2023-05-14T08:57:41.973Z,5.40
2023-05-14T09:00:14.602Z,3.83
2023-05-14T09:02:46.274Z,4.55
2023-05-14T09:05:19.339Z,4.00
2023-05-14T09:07:51.033Z,4.45
2023-05-14T09:10:23.136Z,4.53
2023-05-14T09:12:55.063Z,4.65
2023-05-14T09:15:26.744Z,4.28
2023-05-14T09:17:58.452Z,8.52
2023-05-14T09:20:31.677Z,3.85
2023-05-14T09:23:03.330Z,4.10
2023-05-14T09:25:34.970Z,6.57
2023-05-14T09:28:07.001Z,3.95
2023-05-14T09:30:38.640Z,6.07
2023-05-14T09:33:10.409Z,3.42
2023-05-14T09:35:43.499Z,4.07
2023-05-14T09:38:15.175Z,3.38
2023-05-14T09:40:46.854Z,5.53
2023-05-14T09:43:18.515Z,4.72
2023-05-14T09:45:50.200Z,5.13
2023-05-14T09:48:21.942Z,8.50
2023-05-14T09:50:55.029Z,5.78
2023-05-14T09:53:26.682Z,4.95
2023-05-14T09:55:58.755Z,7.50
2023-05-14T09:58:30.388Z,6.45
2023-05-14T10:01:02.111Z,8.00
2023-05-14T10:03:33.852Z,6.20
2023-05-14T10:06:07.404Z,6.20
2023-05-14T10:08:40.957Z,6.05
2023-05-14T10:11:14.325Z,7.05
2023-05-14T10:13:48.538Z,5.50
2023-05-14T10:16:21.981Z,7.32
2023-05-14T10:18:55.092Z,5.28
2023-05-14T10:21:30.093Z,6.07
2023-05-14T10:24:01.831Z,6.50
2023-05-14T10:26:36.758Z,6.10
2023-05-14T10:29:09.953Z,7.20
2023-05-14T10:31:48.951Z,5.78
2023-05-14T10:34:34.300Z,6.22
2023-05-14T10:37:08.540Z,6.03
2023-05-14T10:39:44.059Z,6.63
2023-05-14T10:42:17.987Z,6.20
2023-05-14T10:44:52.203Z,5.63
2023-05-14T10:47:23.936Z,5.60
2023-05-14T10:49:56.360Z,7.78
2023-05-14T10:52:29.586Z,5.88
2023-05-14T10:55:03.428Z,6.85
2023-05-14T10:57:37.689Z,6.55
2023-05-14T11:00:10.720Z,5.47
2023-05-14T11:02:42.938Z,6.40
2023-05-14T11:05:15.271Z,5.55
2023-05-14T11:07:49.032Z,7.53
2023-05-14T11:10:20.969Z,7.78
2023-05-14T11:12:52.702Z,8.48
2023-05-14T11:15:27.161Z,5.75
2023-05-14T11:17:58.924Z,8.30
2023-05-14T11:20:30.657Z,5.45
2023-05-14T11:23:03.743Z,5.28
2023-05-14T11:25:35.472Z,5.63
2023-05-14T11:28:07.153Z,11.90
2023-05-14T11:30:38.840Z,6.25
2023-05-14T11:33:10.559Z,7.82
2023-05-14T11:35:42.280Z,9.07
2023-05-14T11:38:16.183Z,8.40
2023-05-14T11:40:51.929Z,7.63
2023-05-14T11:43:23.781Z,9.43
2023-05-14T11:45:55.782Z,7.63
2023-05-14T11:48:27.505Z,6.45
2023-05-14T11:50:59.168Z,6.43
2023-05-14T11:53:32.211Z,8.23
2023-05-14T11:56:04.308Z,9.95
2023-05-14T11:58:35.975Z,7.93
2023-05-14T12:01:07.660Z,7.78
2023-05-14T12:03:39.457Z,8.90
2023-05-14T12:06:11.201Z,8.15
2023-05-14T12:08:44.266Z,6.15
2023-05-14T12:11:15.928Z,7.00
2023-05-14T12:13:47.594Z,7.60
2023-05-14T12:16:20.860Z,8.57
2023-05-14T12:18:52.592Z,6.10
2023-05-14T12:21:24.359Z,8.55
2023-05-14T12:23:58.688Z,7.57
2023-05-14T12:26:32.761Z,10.18
2023-05-14T12:29:04.698Z,8.57
2023-05-14T12:31:36.542Z,6.40
2023-05-14T12:34:08.317Z,5.55
2023-05-14T12:36:39.962Z,3.72
2023-05-14T12:39:12.984Z,3.60
2023-05-14T12:41:44.658Z,3.10
2023-05-14T12:44:16.357Z,3.75
2023-05-14T12:46:48.050Z,4.88
2023-05-14T12:49:20.504Z,5.22
2023-05-14T12:51:59.680Z,4.75
2023-05-14T12:54:42.922Z,3.33
2023-05-14T12:57:14.714Z,4.90
2023-05-14T12:59:46.383Z,3.83
2023-05-14T13:02:18.190Z,2.60
2023-05-14T13:04:49.889Z,4.07
2023-05-14T13:07:21.599Z,4.78
2023-05-14T13:09:54.627Z,5.38
2023-05-14T13:12:26.317Z,3.58
2023-05-14T13:14:57.988Z,2.30
2023-05-14T13:17:29.743Z,3.35
2023-05-14T13:20:01.450Z,3.50
2023-05-14T13:22:33.131Z,5.45
2023-05-14T13:25:07.695Z,4.97
2023-05-14T13:27:39.393Z,4.35
2023-05-14T13:30:11.699Z,4.95
2023-05-14T13:32:43.397Z,4.60
2023-05-14T13:35:15.104Z,3.20
2023-05-14T13:37:47.186Z,2.92
2023-05-14T13:40:32.007Z,2.95
2023-05-14T13:43:03.681Z,3.25
2023-05-14T13:45:35.378Z,4.55
2023-05-14T13:48:07.091Z,8.10
2023-05-14T13:50:38.863Z,4.72
2023-05-14T13:53:10.536Z,4.43
2023-05-14T13:55:45.004Z,3.42
2023-05-14T13:58:17.491Z,4.05
2023-05-14T14:00:49.251Z,4.97
2023-05-14T14:03:20.956Z,3.83
2023-05-14T14:05:52.631Z,3.60
2023-05-14T14:08:24.670Z,3.42
2023-05-14T14:10:57.823Z,4.75
2023-05-14T14:13:29.529Z,4.32
2023-05-14T14:16:01.244Z,3.65
2023-05-14T14:18:33.236Z,13.25
2023-05-14T14:21:05.030Z,2.78
2023-05-14T14:23:36.716Z,3.60
2023-05-14T14:26:09.758Z,2.90
2023-05-14T14:28:41.451Z,5.13
2023-05-14T14:31:13.185Z,4.22
2023-05-14T14:33:44.847Z,4.80
2023-05-14T14:36:16.535Z,5.57
2023-05-14T14:38:48.201Z,2.55
2023-05-14T14:41:21.277Z,4.30
2023-05-14T14:43:52.934Z,4.78
2023-05-14T14:46:24.646Z,3.47
2023-05-14T14:48:56.468Z,2.45
2023-05-14T14:51:28.139Z,2.58
2023-05-14T14:53:59.810Z,7.10
2023-05-14T14:56:33.086Z,4.25
2023-05-14T14:59:04.799Z,6.45
2023-05-14T15:01:36.530Z,4.03
2023-05-14T15:04:08.319Z,3.35
2023-05-14T15:06:39.973Z,4.68
2023-05-14T15:09:14.076Z,3.55
2023-05-14T15:11:47.116Z,4.18
2023-05-14T15:14:18.795Z,4.68
2023-05-14T15:16:51.171Z,5.32
2023-05-14T15:19:22.918Z,4.38
2023-05-14T15:21:54.602Z,4.70
2023-05-14T15:24:26.282Z,6.05
2023-05-14T15:26:59.337Z,3.38
2023-05-14T15:29:31.040Z,3.25
2023-05-14T15:32:02.992Z,3.00
2023-05-14T15:34:34.719Z,3.13
2023-05-14T15:37:06.415Z,4.22
2023-05-14T15:39:38.066Z,3.58
2023-05-14T15:42:11.105Z,6.05
2023-05-14T15:44:42.788Z,4.38
2023-05-14T15:47:14.468Z,3.78
2023-05-14T15:49:46.155Z,3.38
2023-05-14T15:52:17.848Z,6.22
2023-05-14T15:54:49.545Z,3.90
2023-05-14T15:57:22.562Z,3.63
2023-05-14T15:59:54.321Z,4.47
2023-05-14T16:02:25.996Z,2.53
2023-05-14T16:04:57.686Z,3.55
2023-05-14T16:07:29.350Z,3.25
2023-05-14T16:10:01.078Z,2.42
2023-05-14T16:12:34.119Z,5.75
2023-05-14T16:15:07.315Z,4.88
2023-05-14T16:17:39.041Z,3.75
2023-05-14T16:20:12.064Z,3.15
2023-05-14T16:22:43.746Z,3.08
2023-05-14T16:25:15.611Z,3.65
2023-05-14T16:27:48.639Z,4.05
2023-05-14T16:30:20.332Z,4.18
2023-05-14T16:32:52.140Z,5.45
2023-05-14T16:35:23.861Z,2.67
2023-05-14T16:37:55.886Z,3.42
2023-05-14T16:40:27.568Z,2.72
2023-05-14T16:43:00.645Z,2.95
2023-05-14T16:45:32.310Z,3.83
2023-05-14T16:48:04.774Z,4.50
2023-05-14T16:50:36.506Z,2.45
2023-05-14T16:53:08.145Z,4.53
2023-05-14T16:55:39.803Z,4.05
2023-05-14T16:58:12.819Z,1.92
2023-05-14T17:00:44.650Z,3.38
2023-05-14T17:03:16.320Z,3.08
2023-05-14T17:05:48.842Z,4.53
2023-05-14T17:08:20.502Z,5.10
2023-05-14T17:10:52.170Z,2.10
2023-05-14T17:13:25.222Z,3.15
2023-05-14T17:15:56.882Z,2.17
2023-05-14T17:18:28.641Z,4.55
2023-05-14T17:21:00.373Z,2.30
2023-05-14T17:23:32.028Z,3.47
2023-05-14T17:26:03.693Z,4.40
2023-05-14T17:28:36.705Z,3.90
2023-05-14T17:31:08.539Z,3.00
2023-05-14T17:33:40.350Z,3.28
2023-05-14T17:36:12.069Z,3.13
2023-05-14T17:38:43.747Z,3.35
2023-05-14T17:41:15.403Z,6.22
2023-05-14T17:43:48.422Z,4.35
2023-05-14T17:46:20.242Z,3.35
2023-05-14T17:48:51.962Z,3.38
2023-05-14T17:51:23.638Z,3.40
2023-05-14T17:53:55.341Z,2.08
2023-05-14T17:56:27.021Z,2.63
2023-05-14T17:59:00.051Z,2.33
2023-05-14T18:01:31.876Z,3.15
2023-05-14T18:04:03.625Z,2.60
2023-05-14T18:06:35.425Z,2.80
2023-05-14T18:09:07.121Z,2.78
2023-05-14T18:11:38.808Z,3.85
2023-05-14T18:14:11.806Z,1.90
2023-05-14T18:16:43.645Z,3.85
2023-05-14T18:19:15.392Z,1.90
2023-05-14T18:21:47.117Z,4.53
2023-05-14T18:24:18.779Z,5.60
2023-05-14T18:26:50.460Z,3.88
2023-05-14T18:29:23.470Z,4.75
2023-05-14T18:31:55.138Z,4.40
2023-05-14T18:34:26.835Z,2.50
2023-05-14T18:36:58.502Z,3.92
2023-05-14T18:39:30.172Z,5.20
2023-05-14T18:42:01.827Z,8.25
2023-05-14T18:44:34.852Z,6.70
2023-05-14T18:47:06.897Z,3.50
2023-05-14T18:49:38.564Z,6.93
2023-05-14T18:52:10.246Z,5.78
2023-05-14T18:54:41.918Z,6.50
2023-05-14T18:57:13.664Z,6.13
2023-05-14T18:59:46.698Z,4.80
2023-05-14T19:02:18.414Z,5.45
2023-05-14T19:04:52.884Z,5.15
2023-05-14T19:07:24.985Z,6.80
2023-05-14T19:09:57.081Z,6.15
2023-05-14T19:12:28.766Z,3.17
2023-05-14T19:15:01.779Z,4.90
2023-05-14T19:17:33.486Z,3.35
2023-05-14T19:20:06.192Z,2.92
2023-05-14T19:22:37.901Z,3.78
2023-05-14T19:25:10.174Z,3.20
2023-05-14T19:27:41.856Z,3.22
2023-05-14T19:30:15.311Z,3.40
2023-05-14T19:32:47.076Z,5.18
2023-05-14T19:35:18.751Z,5.68
2023-05-14T19:37:50.489Z,8.15
2023-05-14T19:40:22.145Z,3.53
2023-05-14T19:42:53.822Z,4.07
2023-05-14T19:45:26.998Z,3.80
2023-05-14T19:47:58.836Z,2.70
2023-05-14T19:50:30.689Z,3.75
2023-05-14T19:53:02.398Z,3.90
2023-05-14T19:55:34.102Z,2.70
2023-05-14T19:58:05.761Z,3.70
2023-05-14T20:00:38.805Z,3.85
2023-05-14T20:03:10.898Z,3.17
2023-05-14T20:05:43.550Z,2.70
2023-05-14T20:08:15.212Z,3.92
2023-05-14T20:10:46.986Z,3.60
2023-05-14T20:13:18.660Z,3.30
2023-05-14T20:15:51.671Z,26.80
2023-05-14T20:18:23.346Z,6.68
2023-05-14T20:20:54.988Z,2.58
2023-05-14T20:23:26.748Z,4.03
2023-05-14T20:25:58.418Z,2.25
2023-05-14T20:28:30.086Z,5.25
2023-05-14T20:31:03.181Z,2.22
2023-05-14T20:33:35.053Z,2.42
2023-05-14T20:36:06.735Z,2.30
2023-05-14T20:38:38.411Z,4.40
2023-05-14T20:41:10.105Z,2.65
2023-05-14T20:43:41.767Z,2.22
2023-05-14T20:46:14.820Z,3.17
2023-05-14T20:48:47.025Z,2.70
2023-05-14T20:51:18.711Z,2.20
2023-05-14T20:53:50.368Z,4.40
2023-05-14T20:56:22.054Z,1.90
2023-05-14T20:58:53.705Z,2.97
2023-05-14T21:01:26.930Z,2.38
2023-05-14T21:03:58.829Z,3.72
2023-05-14T21:06:30.712Z,2.70
2023-05-14T21:09:02.398Z,5.05
2023-05-14T21:11:34.052Z,2.38
2023-05-14T21:14:05.727Z,2.78
2023-05-14T21:16:38.798Z,3.03
2023-05-14T21:19:11.243Z,4.10
2023-05-14T21:21:44.235Z,2.83
2023-05-14T21:24:15.889Z,4.05
2023-05-14T21:26:47.560Z,3.47
2023-05-14T21:29:19.221Z,2.20
2023-05-14T21:31:52.268Z,3.00
2023-05-14T21:34:24.013Z,2.05
2023-05-14T21:36:55.712Z,3.45
2023-05-14T21:39:27.409Z,3.25
2023-05-14T21:41:59.092Z,2.30
2023-05-14T21:44:30.730Z,2.63
2023-05-14T21:47:04.073Z,2.63
2023-05-14T21:49:35.744Z,2.30
2023-05-14T21:52:07.451Z,2.38
2023-05-14T21:54:39.131Z,2.67
2023-05-14T21:57:10.828Z,1.92
2023-05-14T21:59:42.483Z,2.45
